sensor_id;sensor_type;location;lat;lon;timestamp;P1;durP1;ratioP1;P2;durP2;ratioP2
2838;SDS011;1427;48.510;9.060;2023-09-19T00:01:51;46.50;;;2.00;;
2838;SDS011;1427;48.510;9.060;2023-09-19T00:04:20;45.87;;;1.60;;
2838;SDS011;1427;48.510;9.060;2023-09-19T00:06:55;45.00;;;1.40;;
2838;SDS011;1427;48.510;9.060;2023-09-19T00:09:24;45.50;;;1.60;;
2838;SDS011;1427;48.510;9.060;2023-09-19T00:11:58;46.03;;;2.10;;
2838;SDS011;1427;48.510;9.060;2023-09-19T00:14:30;45.70;;;1.50;;
2838;SDS011;1427;48.510;9.060;2023-09-19T00:17:01;45.97;;;1.70;;
2838;SDS011;1427;48.510;9.060;2023-09-19T00:19:34;45.93;;;1.77;;
2838;SDS011;1427;48.510;9.060;2023-09-19T00:22:04;45.77;;;1.60;;
2838;SDS011;1427;48.510;9.060;2023-09-19T00:24:36;45.97;;;1.60;;
2838;SDS011;1427;48.510;9.060;2023-09-19T00:27:10;45.80;;;1.30;;
2838;SDS011;1427;48.510;9.060;2023-09-19T00:29:38;46.57;;;1.63;;
2838;SDS011;1427;48.510;9.060;2023-09-19T00:32:12;45.73;;;1.67;;
2838;SDS011;1427;48.510;9.060;2023-09-19T00:34:44;45.77;;;1.37;;
2838;SDS011;1427;48.510;9.060;2023-09-19T00:37:19;45.97;;;2.00;;
2838;SDS011;1427;48.510;9.060;2023-09-19T00:39:51;47.10;;;1.30;;
2838;SDS011;1427;48.510;9.060;2023-09-19T00:42:24;45.87;;;1.43;;
2838;SDS011;1427;48.510;9.060;2023-09-19T00:44:56;45.60;;;1.43;;
2838;SDS011;1427;48.510;9.060;2023-09-19T00:47:33;47.53;;;1.87;;
2838;SDS011;1427;48.510;9.060;2023-09-19T00:50:02;45.47;;;1.60;;
2838;SDS011;1427;48.510;9.060;2023-09-19T00:52:37;45.47;;;1.37;;
2838;SDS011;1427;48.510;9.060;2023-09-19T00:55:08;45.80;;;1.57;;
2838;SDS011;1427;48.510;9.060;2023-09-19T00:57:39;45.20;;;1.40;;
2838;SDS011;1427;48.510;9.060;2023-09-19T01:00:09;45.60;;;1.60;;
2838;SDS011;1427;48.510;9.060;2023-09-19T01:02:42;45.70;;;1.60;;
2838;SDS011;1427;48.510;9.060;2023-09-19T01:05:15;45.93;;;1.73;;
2838;SDS011;1427;48.510;9.060;2023-09-19T01:07:48;45.47;;;1.30;;
2838;SDS011;1427;48.510;9.060;2023-09-19T01:10:20;45.90;;;1.70;;
2838;SDS011;1427;48.510;9.060;2023-09-19T01:12:54;45.60;;;1.73;;
2838;SDS011;1427;48.510;9.060;2023-09-19T01:15:32;45.20;;;1.23;;
2838;SDS011;1427;48.510;9.060;2023-09-19T01:18:29;45.37;;;1.70;;
2838;SDS011;1427;48.510;9.060;2023-09-19T01:21:09;45.17;;;1.30;;
2838;SDS011;1427;48.510;9.060;2023-09-19T01:23:52;46.10;;;1.73;;
2838;SDS011;1427;48.510;9.060;2023-09-19T01:26:48;45.80;;;1.53;;
2838;SDS011;1427;48.510;9.060;2023-09-19T01:29:44;45.90;;;1.30;;
2838;SDS011;1427;48.510;9.060;2023-09-19T01:32:19;46.00;;;1.80;;
2838;SDS011;1427;48.510;9.060;2023-09-19T01:34:52;45.93;;;1.60;;
2838;SDS011;1427;48.510;9.060;2023-09-19T01:37:24;45.83;;;1.30;;
2838;SDS011;1427;48.510;9.060;2023-09-19T01:39:55;45.80;;;2.07;;
2838;SDS011;1427;48.510;9.060;2023-09-19T01:42:44;45.87;;;2.07;;
2838;SDS011;1427;48.510;9.060;2023-09-19T01:45:20;45.70;;;1.50;;
2838;SDS011;1427;48.510;9.060;2023-09-19T01:48:02;45.57;;;1.80;;
2838;SDS011;1427;48.510;9.060;2023-09-19T01:50:46;45.50;;;1.50;;
2838;SDS011;1427;48.510;9.060;2023-09-19T01:53:28;46.00;;;1.70;;
2838;SDS011;1427;48.510;9.060;2023-09-19T01:56:07;45.97;;;1.60;;
2838;SDS011;1427;48.510;9.060;2023-09-19T01:58:43;45.50;;;1.40;;
2838;SDS011;1427;48.510;9.060;2023-09-19T02:01:20;45.60;;;1.60;;
2838;SDS011;1427;48.510;9.060;2023-09-19T02:03:56;46.03;;;1.50;;
2838;SDS011;1427;48.510;9.060;2023-09-19T02:06:28;45.87;;;1.30;;
2838;SDS011;1427;48.510;9.060;2023-09-19T02:09:01;45.17;;;1.37;;
2838;SDS011;1427;48.510;9.060;2023-09-19T02:11:30;45.50;;;1.53;;
2838;SDS011;1427;48.510;9.060;2023-09-19T02:14:04;46.10;;;2.10;;
2838;SDS011;1427;48.510;9.060;2023-09-19T02:16:35;45.77;;;1.70;;
2838;SDS011;1427;48.510;9.060;2023-09-19T02:19:06;45.77;;;1.60;;
2838;SDS011;1427;48.510;9.060;2023-09-19T02:21:40;46.63;;;1.93;;
2838;SDS011;1427;48.510;9.060;2023-09-19T02:24:10;46.07;;;1.70;;
2838;SDS011;1427;48.510;9.060;2023-09-19T02:26:43;47.10;;;2.00;;
2838;SDS011;1427;48.510;9.060;2023-09-19T02:29:16;45.90;;;1.53;;
2838;SDS011;1427;48.510;9.060;2023-09-19T02:31:49;45.40;;;1.70;;
2838;SDS011;1427;48.510;9.060;2023-09-19T02:34:22;45.60;;;1.50;;
2838;SDS011;1427;48.510;9.060;2023-09-19T02:36:53;45.77;;;1.63;;
2838;SDS011;1427;48.510;9.060;2023-09-19T02:39:22;45.57;;;1.40;;
2838;SDS011;1427;48.510;9.060;2023-09-19T02:41:53;45.87;;;1.60;;
2838;SDS011;1427;48.510;9.060;2023-09-19T02:44:29;46.47;;;1.83;;
2838;SDS011;1427;48.510;9.060;2023-09-19T02:47:02;45.80;;;1.57;;
2838;SDS011;1427;48.510;9.060;2023-09-19T02:49:33;47.00;;;2.50;;
2838;SDS011;1427;48.510;9.060;2023-09-19T02:52:02;46.27;;;1.80;;
2838;SDS011;1427;48.510;9.060;2023-09-19T02:54:34;45.70;;;1.40;;
2838;SDS011;1427;48.510;9.060;2023-09-19T02:57:03;46.07;;;1.70;;
2838;SDS011;1427;48.510;9.060;2023-09-19T02:59:34;45.77;;;1.40;;
2838;SDS011;1427;48.510;9.060;2023-09-19T03:02:09;46.10;;;1.70;;
2838;SDS011;1427;48.510;9.060;2023-09-19T03:04:42;45.53;;;1.43;;
2838;SDS011;1427;48.510;9.060;2023-09-19T03:07:15;45.83;;;1.93;;
2838;SDS011;1427;48.510;9.060;2023-09-19T03:09:44;45.77;;;1.80;;
2838;SDS011;1427;48.510;9.060;2023-09-19T03:12:15;46.07;;;1.97;;
2838;SDS011;1427;48.510;9.060;2023-09-19T03:14:44;46.17;;;1.83;;
2838;SDS011;1427;48.510;9.060;2023-09-19T03:17:19;45.70;;;1.40;;
2838;SDS011;1427;48.510;9.060;2023-09-19T03:19:53;45.83;;;1.60;;
2838;SDS011;1427;48.510;9.060;2023-09-19T03:22:21;45.50;;;1.50;;
2838;SDS011;1427;48.510;9.060;2023-09-19T03:24:54;45.90;;;1.60;;
2838;SDS011;1427;48.510;9.060;2023-09-19T03:27:27;46.07;;;2.30;;
2838;SDS011;1427;48.510;9.060;2023-09-19T03:29:57;45.70;;;1.50;;
2838;SDS011;1427;48.510;9.060;2023-09-19T03:32:27;45.60;;;1.60;;
2838;SDS011;1427;48.510;9.060;2023-09-19T03:35:00;45.77;;;1.57;;
2838;SDS011;1427;48.510;9.060;2023-09-19T03:37:32;46.27;;;2.03;;
2838;SDS011;1427;48.510;9.060;2023-09-19T03:40:01;45.87;;;1.97;;
2838;SDS011;1427;48.510;9.060;2023-09-19T03:42:32;48.13;;;1.97;;
2838;SDS011;1427;48.510;9.060;2023-09-19T03:45:02;46.00;;;2.10;;
2838;SDS011;1427;48.510;9.060;2023-09-19T03:47:32;46.50;;;1.77;;
2838;SDS011;1427;48.510;9.060;2023-09-19T03:50:08;46.27;;;2.17;;
2838;SDS011;1427;48.510;9.060;2023-09-19T03:52:44;46.10;;;1.90;;
2838;SDS011;1427;48.510;9.060;2023-09-19T03:55:12;45.70;;;1.50;;
2838;SDS011;1427;48.510;9.060;2023-09-19T03:57:41;45.60;;;1.30;;
2838;SDS011;1427;48.510;9.060;2023-09-19T04:00:18;45.70;;;1.80;;
2838;SDS011;1427;48.510;9.060;2023-09-19T04:02:48;45.50;;;1.40;;
2838;SDS011;1427;48.510;9.060;2023-09-19T04:05:19;46.00;;;1.80;;
2838;SDS011;1427;48.510;9.060;2023-09-19T04:07:47;46.07;;;1.80;;
2838;SDS011;1427;48.510;9.060;2023-09-19T04:10:16;45.80;;;1.63;;
2838;SDS011;1427;48.510;9.060;2023-09-19T04:12:51;45.83;;;1.43;;
2838;SDS011;1427;48.510;9.060;2023-09-19T04:15:20;45.70;;;1.50;;
2838;SDS011;1427;48.510;9.060;2023-09-19T04:17:49;48.90;;;1.60;;
2838;SDS011;1427;48.510;9.060;2023-09-19T04:20:19;45.77;;;1.60;;
2838;SDS011;1427;48.510;9.060;2023-09-19T04:22:49;45.87;;;2.03;;
2838;SDS011;1427;48.510;9.060;2023-09-19T04:25:18;45.60;;;1.47;;
2838;SDS011;1427;48.510;9.060;2023-09-19T04:27:47;46.63;;;2.30;;
2838;SDS011;1427;48.510;9.060;2023-09-19T04:30:15;46.27;;;2.17;;
2838;SDS011;1427;48.510;9.060;2023-09-19T04:32:43;45.67;;;1.60;;
2838;SDS011;1427;48.510;9.060;2023-09-19T04:35:18;45.30;;;1.40;;
2838;SDS011;1427;48.510;9.060;2023-09-19T04:37:47;45.43;;;1.50;;
2838;SDS011;1427;48.510;9.060;2023-09-19T04:40:18;45.67;;;1.90;;
2838;SDS011;1427;48.510;9.060;2023-09-19T04:42:52;47.37;;;1.83;;
2838;SDS011;1427;48.510;9.060;2023-09-19T04:45:23;46.73;;;1.70;;
2838;SDS011;1427;48.510;9.060;2023-09-19T04:47:53;45.57;;;1.33;;
2838;SDS011;1427;48.510;9.060;2023-09-19T04:50:22;46.20;;;2.13;;
2838;SDS011;1427;48.510;9.060;2023-09-19T04:52:54;45.77;;;1.77;;
2838;SDS011;1427;48.510;9.060;2023-09-19T04:55:23;45.67;;;1.40;;
2838;SDS011;1427;48.510;9.060;2023-09-19T04:57:51;47.97;;;3.30;;
2838;SDS011;1427;48.510;9.060;2023-09-19T05:00:24;51.23;;;3.17;;
2838;SDS011;1427;48.510;9.060;2023-09-19T05:02:56;45.90;;;2.00;;
2838;SDS011;1427;48.510;9.060;2023-09-19T05:05:26;45.90;;;1.60;;
2838;SDS011;1427;48.510;9.060;2023-09-19T05:07:55;45.70;;;1.80;;
2838;SDS011;1427;48.510;9.060;2023-09-19T05:10:24;46.53;;;2.07;;
2838;SDS011;1427;48.510;9.060;2023-09-19T05:12:52;46.17;;;2.43;;
2838;SDS011;1427;48.510;9.060;2023-09-19T05:15:21;47.10;;;3.57;;
2838;SDS011;1427;48.510;9.060;2023-09-19T05:17:50;48.77;;;3.93;;
2838;SDS011;1427;48.510;9.060;2023-09-19T05:20:24;49.30;;;5.40;;
2838;SDS011;1427;48.510;9.060;2023-09-19T05:23:01;47.07;;;3.73;;
2838;SDS011;1427;48.510;9.060;2023-09-19T05:25:32;47.10;;;3.80;;
2838;SDS011;1427;48.510;9.060;2023-09-19T05:28:04;47.00;;;3.20;;
2838;SDS011;1427;48.510;9.060;2023-09-19T05:30:33;48.97;;;4.57;;
2838;SDS011;1427;48.510;9.060;2023-09-19T05:33:05;47.10;;;3.57;;
2838;SDS011;1427;48.510;9.060;2023-09-19T05:35:34;47.20;;;3.80;;
2838;SDS011;1427;48.510;9.060;2023-09-19T05:38:04;46.87;;;3.10;;
2838;SDS011;1427;48.510;9.060;2023-09-19T05:40:35;47.17;;;3.47;;
2838;SDS011;1427;48.510;9.060;2023-09-19T05:43:05;47.47;;;3.60;;
2838;SDS011;1427;48.510;9.060;2023-09-19T05:45:33;46.90;;;3.40;;
2838;SDS011;1427;48.510;9.060;2023-09-19T05:48:07;46.87;;;3.90;;
2838;SDS011;1427;48.510;9.060;2023-09-19T05:50:36;47.13;;;3.43;;
2838;SDS011;1427;48.510;9.060;2023-09-19T05:53:06;47.10;;;4.13;;
2838;SDS011;1427;48.510;9.060;2023-09-19T05:55:34;46.77;;;2.93;;
2838;SDS011;1427;48.510;9.060;2023-09-19T05:58:02;47.40;;;4.07;;
2838;SDS011;1427;48.510;9.060;2023-09-19T06:00:31;49.20;;;3.97;;
2838;SDS011;1427;48.510;9.060;2023-09-19T06:03:02;46.57;;;3.37;;
2838;SDS011;1427;48.510;9.060;2023-09-19T06:05:30;47.57;;;3.90;;
2838;SDS011;1427;48.510;9.060;2023-09-19T06:07:58;47.00;;;3.30;;
2838;SDS011;1427;48.510;9.060;2023-09-19T06:10:29;46.97;;;3.37;;
2838;SDS011;1427;48.510;9.060;2023-09-19T06:12:58;46.40;;;2.97;;
2838;SDS011;1427;48.510;9.060;2023-09-19T06:15:26;48.23;;;5.10;;
2838;SDS011;1427;48.510;9.060;2023-09-19T06:17:55;48.00;;;3.97;;
2838;SDS011;1427;48.510;9.060;2023-09-19T06:20:24;47.07;;;3.40;;
2838;SDS011;1427;48.510;9.060;2023-09-19T06:22:53;48.10;;;3.10;;
2838;SDS011;1427;48.510;9.060;2023-09-19T06:25:21;46.50;;;2.87;;
2838;SDS011;1427;48.510;9.060;2023-09-19T06:27:51;47.10;;;3.33;;
2838;SDS011;1427;48.510;9.060;2023-09-19T06:30:21;47.00;;;3.50;;
2838;SDS011;1427;48.510;9.060;2023-09-19T06:32:55;46.80;;;3.43;;
2838;SDS011;1427;48.510;9.060;2023-09-19T06:35:24;47.57;;;3.67;;
2838;SDS011;1427;48.510;9.060;2023-09-19T06:37:53;46.30;;;3.00;;
2838;SDS011;1427;48.510;9.060;2023-09-19T06:40:25;46.40;;;3.23;;
2838;SDS011;1427;48.510;9.060;2023-09-19T06:42:56;48.03;;;5.20;;
2838;SDS011;1427;48.510;9.060;2023-09-19T06:45:24;46.70;;;3.30;;
2838;SDS011;1427;48.510;9.060;2023-09-19T06:47:54;46.60;;;3.33;;
2838;SDS011;1427;48.510;9.060;2023-09-19T06:50:25;46.73;;;3.07;;
2838;SDS011;1427;48.510;9.060;2023-09-19T06:52:54;47.27;;;3.87;;
2838;SDS011;1427;48.510;9.060;2023-09-19T06:55:25;46.37;;;2.90;;
2838;SDS011;1427;48.510;9.060;2023-09-19T06:57:56;47.27;;;3.60;;
2838;SDS011;1427;48.510;9.060;2023-09-19T07:00:25;46.60;;;3.63;;
2838;SDS011;1427;48.510;9.060;2023-09-19T07:02:55;46.60;;;3.10;;
2838;SDS011;1427;48.510;9.060;2023-09-19T07:05:25;46.50;;;3.23;;
2838;SDS011;1427;48.510;9.060;2023-09-19T07:07:54;46.40;;;3.40;;
2838;SDS011;1427;48.510;9.060;2023-09-19T07:10:23;46.80;;;3.40;;
2838;SDS011;1427;48.510;9.060;2023-09-19T07:12:57;47.00;;;3.40;;
2838;SDS011;1427;48.510;9.060;2023-09-19T07:15:25;46.97;;;2.50;;
2838;SDS011;1427;48.510;9.060;2023-09-19T07:17:54;47.13;;;3.33;;
2838;SDS011;1427;48.510;9.060;2023-09-19T07:20:23;46.80;;;3.67;;
2838;SDS011;1427;48.510;9.060;2023-09-19T07:22:53;47.20;;;3.30;;
2838;SDS011;1427;48.510;9.060;2023-09-19T07:25:22;46.80;;;3.43;;
2838;SDS011;1427;48.510;9.060;2023-09-19T07:27:50;47.80;;;4.03;;
2838;SDS011;1427;48.510;9.060;2023-09-19T07:30:20;47.80;;;3.60;;
2838;SDS011;1427;48.510;9.060;2023-09-19T07:32:49;47.63;;;3.63;;
2838;SDS011;1427;48.510;9.060;2023-09-19T07:35:18;47.33;;;3.13;;
2838;SDS011;1427;48.510;9.060;2023-09-19T07:37:47;46.67;;;3.10;;
2838;SDS011;1427;48.510;9.060;2023-09-19T07:40:18;46.60;;;2.90;;
2838;SDS011;1427;48.510;9.060;2023-09-19T07:42:47;47.10;;;3.53;;
2838;SDS011;1427;48.510;9.060;2023-09-19T07:45:17;46.77;;;3.40;;
2838;SDS011;1427;48.510;9.060;2023-09-19T07:47:46;47.20;;;3.43;;
2838;SDS011;1427;48.510;9.060;2023-09-19T07:50:16;46.47;;;3.13;;
2838;SDS011;1427;48.510;9.060;2023-09-19T07:52:46;46.80;;;3.37;;
2838;SDS011;1427;48.510;9.060;2023-09-19T07:55:14;47.37;;;3.67;;
2838;SDS011;1427;48.510;9.060;2023-09-19T07:57:43;47.03;;;3.77;;
2838;SDS011;1427;48.510;9.060;2023-09-19T08:00:13;47.00;;;3.43;;
2838;SDS011;1427;48.510;9.060;2023-09-19T08:02:42;47.20;;;3.83;;
2838;SDS011;1427;48.510;9.060;2023-09-19T08:05:14;48.43;;;5.60;;
2838;SDS011;1427;48.510;9.060;2023-09-19T08:07:44;46.87;;;3.50;;
2838;SDS011;1427;48.510;9.060;2023-09-19T08:10:15;46.40;;;2.80;;
2838;SDS011;1427;48.510;9.060;2023-09-19T08:12:46;47.20;;;3.43;;
2838;SDS011;1427;48.510;9.060;2023-09-19T08:15:16;47.43;;;3.83;;
2838;SDS011;1427;48.510;9.060;2023-09-19T08:17:46;46.50;;;3.13;;
2838;SDS011;1427;48.510;9.060;2023-09-19T08:20:16;47.23;;;3.73;;
2838;SDS011;1427;48.510;9.060;2023-09-19T08:22:46;48.17;;;3.60;;
2838;SDS011;1427;48.510;9.060;2023-09-19T08:25:15;47.00;;;3.30;;
2838;SDS011;1427;48.510;9.060;2023-09-19T08:27:45;46.77;;;3.67;;
2838;SDS011;1427;48.510;9.060;2023-09-19T08:30:14;46.97;;;3.63;;
2838;SDS011;1427;48.510;9.060;2023-09-19T08:32:43;48.23;;;5.40;;
2838;SDS011;1427;48.510;9.060;2023-09-19T08:35:12;47.10;;;3.47;;
2838;SDS011;1427;48.510;9.060;2023-09-19T08:37:43;46.70;;;3.30;;
2838;SDS011;1427;48.510;9.060;2023-09-19T08:40:12;47.67;;;3.77;;
2838;SDS011;1427;48.510;9.060;2023-09-19T08:42:47;46.87;;;3.80;;
2838;SDS011;1427;48.510;9.060;2023-09-19T08:45:16;47.07;;;3.40;;
2838;SDS011;1427;48.510;9.060;2023-09-19T08:47:45;46.90;;;2.90;;
2838;SDS011;1427;48.510;9.060;2023-09-19T08:50:19;46.97;;;3.40;;
2838;SDS011;1427;48.510;9.060;2023-09-19T08:52:56;46.70;;;3.23;;
2838;SDS011;1427;48.510;9.060;2023-09-19T08:55:29;47.37;;;4.00;;
2838;SDS011;1427;48.510;9.060;2023-09-19T08:58:00;46.10;;;2.50;;
2838;SDS011;1427;48.510;9.060;2023-09-19T09:00:30;46.47;;;2.70;;
2838;SDS011;1427;48.510;9.060;2023-09-19T09:02:59;46.93;;;3.20;;
2838;SDS011;1427;48.510;9.060;2023-09-19T09:05:30;46.53;;;2.80;;
2838;SDS011;1427;48.510;9.060;2023-09-19T09:08:01;46.90;;;3.27;;
2838;SDS011;1427;48.510;9.060;2023-09-19T09:10:30;46.77;;;3.00;;
2838;SDS011;1427;48.510;9.060;2023-09-19T09:12:59;46.70;;;3.07;;
2838;SDS011;1427;48.510;9.060;2023-09-19T09:15:27;46.67;;;3.00;;
2838;SDS011;1427;48.510;9.060;2023-09-19T09:17:59;47.17;;;3.33;;
2838;SDS011;1427;48.510;9.060;2023-09-19T09:20:27;46.80;;;3.40;;
2838;SDS011;1427;48.510;9.060;2023-09-19T09:22:56;46.50;;;2.80;;
2838;SDS011;1427;48.510;9.060;2023-09-19T09:28:22;46.87;;;3.33;;
2838;SDS011;1427;48.510;9.060;2023-09-19T09:30:51;47.43;;;3.73;;
2838;SDS011;1427;48.510;9.060;2023-09-19T09:33:19;47.50;;;4.70;;
2838;SDS011;1427;48.510;9.060;2023-09-19T09:35:48;46.93;;;3.53;;
2838;SDS011;1427;48.510;9.060;2023-09-19T09:38:22;48.67;;;3.90;;
2838;SDS011;1427;48.510;9.060;2023-09-19T09:40:55;46.57;;;3.20;;
2838;SDS011;1427;48.510;9.060;2023-09-19T09:43:29;46.93;;;3.23;;
2838;SDS011;1427;48.510;9.060;2023-09-19T09:49:03;47.70;;;3.43;;
2838;SDS011;1427;48.510;9.060;2023-09-19T09:52:00;47.00;;;3.23;;
2838;SDS011;1427;48.510;9.060;2023-09-19T09:54:35;46.50;;;3.00;;
2838;SDS011;1427;48.510;9.060;2023-09-19T09:57:05;47.00;;;3.70;;
2838;SDS011;1427;48.510;9.060;2023-09-19T09:59:46;46.80;;;3.33;;
2838;SDS011;1427;48.510;9.060;2023-09-19T10:02:17;47.20;;;3.37;;
2838;SDS011;1427;48.510;9.060;2023-09-19T10:04:56;46.47;;;3.10;;
2838;SDS011;1427;48.510;9.060;2023-09-19T10:07:35;46.83;;;3.20;;
2838;SDS011;1427;48.510;9.060;2023-09-19T10:10:10;46.83;;;3.13;;
2838;SDS011;1427;48.510;9.060;2023-09-19T10:12:44;46.57;;;3.00;;
2838;SDS011;1427;48.510;9.060;2023-09-19T10:15:14;46.70;;;3.23;;
2838;SDS011;1427;48.510;9.060;2023-09-19T10:17:44;48.10;;;5.30;;
2838;SDS011;1427;48.510;9.060;2023-09-19T10:20:13;46.97;;;3.23;;
2838;SDS011;1427;48.510;9.060;2023-09-19T10:23:05;46.23;;;2.67;;
2838;SDS011;1427;48.510;9.060;2023-09-19T10:25:39;46.57;;;3.10;;
2838;SDS011;1427;48.510;9.060;2023-09-19T10:28:11;47.30;;;2.83;;
2838;SDS011;1427;48.510;9.060;2023-09-19T10:30:41;47.50;;;4.33;;
2838;SDS011;1427;48.510;9.060;2023-09-19T10:33:12;46.47;;;2.83;;
2838;SDS011;1427;48.510;9.060;2023-09-19T10:35:42;46.90;;;2.87;;
2838;SDS011;1427;48.510;9.060;2023-09-19T10:38:13;47.30;;;3.83;;
2838;SDS011;1427;48.510;9.060;2023-09-19T10:40:45;46.70;;;3.13;;
2838;SDS011;1427;48.510;9.060;2023-09-19T10:43:19;47.90;;;4.07;;
2838;SDS011;1427;48.510;9.060;2023-09-19T10:45:49;46.50;;;3.07;;
2838;SDS011;1427;48.510;9.060;2023-09-19T10:48:19;46.57;;;3.27;;
2838;SDS011;1427;48.510;9.060;2023-09-19T10:50:53;47.90;;;5.43;;
2838;SDS011;1427;48.510;9.060;2023-09-19T10:53:32;46.40;;;3.00;;
2838;SDS011;1427;48.510;9.060;2023-09-19T10:56:10;46.00;;;2.77;;
2838;SDS011;1427;48.510;9.060;2023-09-19T10:58:48;47.60;;;4.00;;
2838;SDS011;1427;48.510;9.060;2023-09-19T11:01:16;46.87;;;3.57;;
2838;SDS011;1427;48.510;9.060;2023-09-19T11:03:44;47.20;;;3.60;;
2838;SDS011;1427;48.510;9.060;2023-09-19T11:06:16;47.23;;;3.50;;
2838;SDS011;1427;48.510;9.060;2023-09-19T11:08:58;47.30;;;4.00;;
2838;SDS011;1427;48.510;9.060;2023-09-19T11:11:48;46.53;;;2.70;;
2838;SDS011;1427;48.510;9.060;2023-09-19T11:20:22;46.20;;;2.70;;
2838;SDS011;1427;48.510;9.060;2023-09-19T11:23:17;47.00;;;3.40;;
2838;SDS011;1427;48.510;9.060;2023-09-19T11:25:49;46.90;;;3.40;;
2838;SDS011;1427;48.510;9.060;2023-09-19T11:40:37;46.97;;;3.33;;
2838;SDS011;1427;48.510;9.060;2023-09-19T11:46:03;48.07;;;4.87;;
2838;SDS011;1427;48.510;9.060;2023-09-19T11:48:32;46.83;;;3.20;;
2838;SDS011;1427;48.510;9.060;2023-09-19T11:51:16;47.43;;;4.23;;
2838;SDS011;1427;48.510;9.060;2023-09-19T11:53:54;47.57;;;4.17;;
2838;SDS011;1427;48.510;9.060;2023-09-19T11:56:23;46.63;;;3.17;;
2838;SDS011;1427;48.510;9.060;2023-09-19T11:58:54;46.90;;;3.50;;
2838;SDS011;1427;48.510;9.060;2023-09-19T12:01:25;47.70;;;3.93;;
2838;SDS011;1427;48.510;9.060;2023-09-19T12:04:00;46.63;;;3.30;;
2838;SDS011;1427;48.510;9.060;2023-09-19T12:06:32;47.37;;;3.43;;
2838;SDS011;1427;48.510;9.060;2023-09-19T12:09:02;48.07;;;4.07;;
2838;SDS011;1427;48.510;9.060;2023-09-19T12:11:33;46.77;;;3.30;;
2838;SDS011;1427;48.510;9.060;2023-09-19T12:14:10;47.40;;;3.93;;
2838;SDS011;1427;48.510;9.060;2023-09-19T12:16:40;46.93;;;3.40;;
2838;SDS011;1427;48.510;9.060;2023-09-19T12:19:22;47.20;;;3.30;;
2838;SDS011;1427;48.510;9.060;2023-09-19T12:21:58;47.10;;;3.67;;
2838;SDS011;1427;48.510;9.060;2023-09-19T12:24:30;48.27;;;5.30;;
2838;SDS011;1427;48.510;9.060;2023-09-19T12:26:59;46.80;;;3.33;;
2838;SDS011;1427;48.510;9.060;2023-09-19T12:29:31;47.43;;;4.20;;
2838;SDS011;1427;48.510;9.060;2023-09-19T12:32:00;46.67;;;3.07;;
2838;SDS011;1427;48.510;9.060;2023-09-19T12:34:32;48.23;;;3.20;;
2838;SDS011;1427;48.510;9.060;2023-09-19T12:37:10;47.90;;;4.20;;
2838;SDS011;1427;48.510;9.060;2023-09-19T12:39:39;47.07;;;3.63;;
2838;SDS011;1427;48.510;9.060;2023-09-19T12:42:10;48.30;;;4.17;;
2838;SDS011;1427;48.510;9.060;2023-09-19T12:44:41;47.50;;;3.77;;
2838;SDS011;1427;48.510;9.060;2023-09-19T12:47:11;46.50;;;2.97;;
2838;SDS011;1427;48.510;9.060;2023-09-19T12:52:42;47.00;;;3.83;;
2838;SDS011;1427;48.510;9.060;2023-09-19T12:55:21;46.67;;;3.33;;
2838;SDS011;1427;48.510;9.060;2023-09-19T12:58:01;47.33;;;4.03;;
2838;SDS011;1427;48.510;9.060;2023-09-19T13:00:36;46.77;;;3.10;;
2838;SDS011;1427;48.510;9.060;2023-09-19T13:03:12;46.80;;;3.53;;
2838;SDS011;1427;48.510;9.060;2023-09-19T13:05:49;47.17;;;3.33;;
2838;SDS011;1427;48.510;9.060;2023-09-19T13:08:28;47.87;;;5.10;;
2838;SDS011;1427;48.510;9.060;2023-09-19T13:11:02;48.77;;;4.90;;
2838;SDS011;1427;48.510;9.060;2023-09-19T13:13:34;47.70;;;4.60;;
2838;SDS011;1427;48.510;9.060;2023-09-19T13:16:03;47.37;;;4.07;;
2838;SDS011;1427;48.510;9.060;2023-09-19T13:18:47;46.77;;;3.13;;
2838;SDS011;1427;48.510;9.060;2023-09-19T13:21:17;46.60;;;3.37;;
2838;SDS011;1427;48.510;9.060;2023-09-19T13:24:17;46.23;;;2.87;;
2838;SDS011;1427;48.510;9.060;2023-09-19T13:26:45;50.27;;;3.63;;
2838;SDS011;1427;48.510;9.060;2023-09-19T13:29:14;46.53;;;3.47;;
2838;SDS011;1427;48.510;9.060;2023-09-19T13:31:45;46.77;;;3.53;;
2838;SDS011;1427;48.510;9.060;2023-09-19T13:34:14;47.77;;;4.60;;
2838;SDS011;1427;48.510;9.060;2023-09-19T13:36:43;47.47;;;4.37;;
2838;SDS011;1427;48.510;9.060;2023-09-19T13:39:13;46.67;;;3.60;;
2838;SDS011;1427;48.510;9.060;2023-09-19T13:41:43;47.43;;;4.50;;
2838;SDS011;1427;48.510;9.060;2023-09-19T13:44:13;47.03;;;3.80;;
2838;SDS011;1427;48.510;9.060;2023-09-19T13:46:42;47.27;;;4.23;;
2838;SDS011;1427;48.510;9.060;2023-09-19T13:49:13;46.67;;;3.33;;
2838;SDS011;1427;48.510;9.060;2023-09-19T13:51:41;46.37;;;3.00;;
2838;SDS011;1427;48.510;9.060;2023-09-19T13:54:11;46.77;;;3.63;;
2838;SDS011;1427;48.510;9.060;2023-09-19T13:56:42;46.57;;;3.40;;
2838;SDS011;1427;48.510;9.060;2023-09-19T13:59:10;47.20;;;3.60;;
2838;SDS011;1427;48.510;9.060;2023-09-19T14:01:39;46.80;;;3.37;;
2838;SDS011;1427;48.510;9.060;2023-09-19T14:04:08;47.77;;;3.33;;
2838;SDS011;1427;48.510;9.060;2023-09-19T14:06:37;46.40;;;3.07;;
2838;SDS011;1427;48.510;9.060;2023-09-19T14:09:08;46.93;;;4.07;;
2838;SDS011;1427;48.510;9.060;2023-09-19T14:11:37;46.40;;;3.13;;
2838;SDS011;1427;48.510;9.060;2023-09-19T14:14:07;46.70;;;3.40;;
2838;SDS011;1427;48.510;9.060;2023-09-19T14:16:35;47.07;;;3.67;;
2838;SDS011;1427;48.510;9.060;2023-09-19T14:19:03;46.37;;;3.10;;
2838;SDS011;1427;48.510;9.060;2023-09-19T14:21:31;46.93;;;3.67;;
2838;SDS011;1427;48.510;9.060;2023-09-19T14:23:59;47.37;;;4.00;;
2838;SDS011;1427;48.510;9.060;2023-09-19T14:26:28;47.43;;;4.40;;
2838;SDS011;1427;48.510;9.060;2023-09-19T14:28:56;47.10;;;4.00;;
2838;SDS011;1427;48.510;9.060;2023-09-19T14:31:27;47.07;;;3.63;;
2838;SDS011;1427;48.510;9.060;2023-09-19T14:33:55;47.07;;;4.13;;
2838;SDS011;1427;48.510;9.060;2023-09-19T14:36:25;46.07;;;2.60;;
2838;SDS011;1427;48.510;9.060;2023-09-19T14:38:55;46.87;;;3.40;;
2838;SDS011;1427;48.510;9.060;2023-09-19T14:41:23;46.60;;;3.23;;
2838;SDS011;1427;48.510;9.060;2023-09-19T14:43:52;47.40;;;3.43;;
2838;SDS011;1427;48.510;9.060;2023-09-19T14:46:21;46.90;;;3.67;;
2838;SDS011;1427;48.510;9.060;2023-09-19T14:48:52;46.50;;;3.33;;
2838;SDS011;1427;48.510;9.060;2023-09-19T14:51:21;47.10;;;4.10;;
2838;SDS011;1427;48.510;9.060;2023-09-19T14:53:49;47.30;;;4.53;;
2838;SDS011;1427;48.510;9.060;2023-09-19T14:56:18;46.80;;;3.63;;
2838;SDS011;1427;48.510;9.060;2023-09-19T14:58:46;47.00;;;3.77;;
2838;SDS011;1427;48.510;9.060;2023-09-19T15:01:14;47.03;;;3.57;;
2838;SDS011;1427;48.510;9.060;2023-09-19T15:03:43;47.50;;;4.30;;
2838;SDS011;1427;48.510;9.060;2023-09-19T15:06:14;48.23;;;4.10;;
2838;SDS011;1427;48.510;9.060;2023-09-19T15:08:43;47.10;;;3.80;;
2838;SDS011;1427;48.510;9.060;2023-09-19T15:11:13;47.27;;;4.27;;
2838;SDS011;1427;48.510;9.060;2023-09-19T15:13:44;47.00;;;3.80;;
2838;SDS011;1427;48.510;9.060;2023-09-19T15:16:13;47.20;;;3.87;;
2838;SDS011;1427;48.510;9.060;2023-09-19T15:18:42;46.63;;;3.57;;
2838;SDS011;1427;48.510;9.060;2023-09-19T15:21:11;46.57;;;3.60;;
2838;SDS011;1427;48.510;9.060;2023-09-19T15:23:42;46.63;;;3.60;;
2838;SDS011;1427;48.510;9.060;2023-09-19T15:26:11;48.40;;;4.53;;
2838;SDS011;1427;48.510;9.060;2023-09-19T15:28:44;46.60;;;3.50;;
2838;SDS011;1427;48.510;9.060;2023-09-19T15:31:12;46.97;;;3.93;;
2838;SDS011;1427;48.510;9.060;2023-09-19T15:33:40;46.70;;;3.50;;
2838;SDS011;1427;48.510;9.060;2023-09-19T15:36:09;47.13;;;3.80;;
2838;SDS011;1427;48.510;9.060;2023-09-19T15:38:56;46.93;;;4.10;;
2838;SDS011;1427;48.510;9.060;2023-09-19T15:41:26;46.70;;;3.60;;
2838;SDS011;1427;48.510;9.060;2023-09-19T15:43:55;46.77;;;3.57;;
2838;SDS011;1427;48.510;9.060;2023-09-19T15:46:24;47.17;;;4.10;;
2838;SDS011;1427;48.510;9.060;2023-09-19T15:48:54;46.50;;;3.40;;
2838;SDS011;1427;48.510;9.060;2023-09-19T15:51:22;47.43;;;3.47;;
2838;SDS011;1427;48.510;9.060;2023-09-19T15:53:52;46.77;;;3.33;;
2838;SDS011;1427;48.510;9.060;2023-09-19T15:56:23;46.70;;;3.53;;
2838;SDS011;1427;48.510;9.060;2023-09-19T15:58:52;47.00;;;3.83;;